Time;durP1;ratioP1;P1;durP2;ratioP2;P2;SDS_P1;SDS_P2;PMS_P1;PMS_P2;Temp;Humidity;BMP_temperature;BMP_pressure;BME280_temperature;BME280_humidity;BME280_pressure;Samples;Min_cycle;Max_cycle;Signal;HPM_P1;HPM_P2
2022/01/24 00:00:22;;;;;;;7.75;5.55;;;4.10;99.90;;;;;;6245743;23;20421;-85
2022/01/24 00:02:48;;;;;;;7.03;5.20;;;4.10;99.90;;;;;;6218933;23;20004;-85
2022/01/24 00:05:16;;;;;;;7.72;5.35;;;4.10;99.90;;;;;;6218774;23;20008;-86
2022/01/24 00:07:42;;;;;;;7.07;5.28;;;4.10;99.90;;;;;;6218930;23;20082;-86
2022/01/24 00:10:09;;;;;;;7.80;5.43;;;4.10;99.90;;;;;;6218780;23;20041;-85
2022/01/24 00:18:02;;;;;;;9.32;5.82;;;4.10;99.90;;;;;;6246498;23;20000;-85
2022/01/24 00:28:27;;;;;;;;;;;4.00;99.90;;;;;;6248386;23;20015;-85
2022/01/24 00:30:54;;;;;;;7.22;4.93;;;4.00;99.90;;;;;;6220540;23;19899;-85
2022/01/24 00:33:20;;;;;;;6.95;4.75;;;4.00;99.90;;;;;;6220565;23;20015;-85
2022/01/24 00:35:50;;;;;;;6.90;4.88;;;4.00;99.90;;;;;;6220493;23;20012;-85
2022/01/24 00:38:16;;;;;;;7.10;5.22;;;4.00;99.90;;;;;;6220581;23;19997;-85
2022/01/24 00:40:45;;;;;;;7.18;5.07;;;4.00;99.90;;;;;;6247376;23;20000;-86
2022/01/24 00:43:25;;;;;;;8.10;5.40;;;4.00;99.90;;;;;;6220499;23;20098;-85
2022/01/24 00:48:59;;;;;;;7.00;4.90;;;4.00;99.90;;;;;;6247262;23;20016;-85
2022/01/24 00:56:15;;;;;;;6.22;4.55;;;4.00;99.90;;;;;;6247680;23;20083;-85
2022/01/24 00:58:41;;;;;;;7.25;4.07;;;4.00;99.90;;;;;;6247485;23;20024;-85
2022/01/24 01:01:07;;;;;;;8.05;5.22;;;4.00;99.90;;;;;;6220258;23;20000;-85
2022/01/24 01:03:33;;;;;;;7.05;4.72;;;4.00;99.90;;;;;;6247089;23;20375;-85
2022/01/24 01:06:07;;;;;;;7.68;4.40;;;4.00;99.90;;;;;;6220145;23;20015;-85
2022/01/24 01:19:39;;;;;;;6.90;4.00;;;3.90;99.90;;;;;;6247523;23;20007;-85
2022/01/24 01:22:05;;;;;;;5.78;4.43;;;4.00;99.90;;;;;;6220190;23;20421;-85
2022/01/24 01:24:36;;;;;;;7.35;5.00;;;3.90;99.90;;;;;;6220233;23;20011;-86
2022/01/24 01:27:11;;;;;;;8.50;4.75;;;3.90;99.90;;;;;;6220118;23;20004;-86
2022/01/24 01:29:50;;;;;;;6.35;4.57;;;4.00;99.90;;;;;;6220156;23;20520;-85
2022/01/24 01:32:36;;;;;;;7.05;4.20;;;3.90;99.90;;;;;;6219938;23;20344;-85
2022/01/24 01:52:17;;;;;;;7.93;5.22;;;3.90;99.90;;;;;;6257369;23;20004;-85
2022/01/24 01:56:48;;;;;;;6.43;4.70;;;3.90;99.90;;;;;;6247036;23;20459;-85
2022/01/24 01:59:14;;;;;;;7.05;4.80;;;3.90;99.90;;;;;;6219793;23;20028;-85
2022/01/24 02:01:40;;;;;;;6.63;4.88;;;3.90;99.90;;;;;;6219754;23;20004;-85
2022/01/24 02:04:06;;;;;;;7.65;5.30;;;3.90;99.90;;;;;;6219671;23;20004;-85
2022/01/24 02:06:32;;;;;;;5.75;4.43;;;3.80;99.90;;;;;;6219655;23;20467;-85
2022/01/24 02:09:09;;;;;;;6.82;4.45;;;3.90;99.90;;;;;;6219703;23;20078;-85
2022/01/24 02:11:35;;;;;;;6.47;4.70;;;3.80;99.90;;;;;;6246566;23;20019;-85
2022/01/24 02:14:08;;;;;;;6.50;4.80;;;3.80;99.90;;;;;;6219462;23;20000;-85
2022/01/24 02:16:52;;;;;;;7.07;4.60;;;3.80;99.90;;;;;;6219523;23;20066;-85
2022/01/24 02:24:52;;;;;;;8.40;4.60;;;3.80;99.90;;;;;;6256503;23;20008;-85
2022/01/24 02:27:21;;;;;;;8.20;4.50;;;3.80;99.90;;;;;;6219521;23;20003;-84
2022/01/24 02:29:54;;;;;;;7.07;4.80;;;3.80;99.90;;;;;;6219468;23;20004;-84
2022/01/24 02:32:20;;;;;;;7.25;4.78;;;3.80;99.90;;;;;;6219396;23;20007;-84
2022/01/24 02:34:49;;;;;;;8.38;5.07;;;3.80;99.90;;;;;;6219344;23;20004;-84
2022/01/24 02:37:18;;;;;;;8.50;4.78;;;3.80;99.90;;;;;;6219413;23;20004;-84
2022/01/24 02:48:30;;;;;;;6.57;4.90;;;3.80;99.90;;;;;;6124902;23;20372;-84
2022/01/24 02:53:38;;;;;;;8.85;5.20;;;3.70;99.90;;;;;;6193228;23;20087;-83
2022/01/24 02:56:05;;;;;;;7.32;5.05;;;3.80;99.90;;;;;;6214213;23;20039;-83
2022/01/24 02:58:31;;;;;;;8.82;5.15;;;3.80;99.90;;;;;;6214294;23;20027;-83
2022/01/24 03:00:57;;;;;;;6.03;4.68;;;3.80;99.90;;;;;;6214203;23;20000;-84
2022/01/24 03:03:23;;;;;;;7.22;4.97;;;3.80;99.90;;;;;;6214233;23;20016;-84
2022/01/24 03:05:49;;;;;;;8.07;4.75;;;3.70;99.90;;;;;;6215698;23;20000;-84
2022/01/24 03:08:15;;;;;;;7.38;5.15;;;3.80;99.90;;;;;;6214279;23;20004;-84
2022/01/24 03:10:45;;;;;;;7.50;4.75;;;3.70;99.90;;;;;;6214260;23;20507;-84
2022/01/24 03:15:48;;;;;;;9.32;4.93;;;3.70;99.90;;;;;;6225948;23;20092;-84
2022/01/24 03:18:14;;;;;;;7.30;4.68;;;3.70;99.90;;;;;;6214276;23;20433;-84
2022/01/24 03:20:40;;;;;;;8.38;5.00;;;3.70;99.90;;;;;;6214185;23;20000;-84
2022/01/24 03:23:07;;;;;;;7.70;5.00;;;3.70;99.90;;;;;;6215809;23;20421;-84
2022/01/24 03:25:33;;;;;;;9.38;4.65;;;3.70;99.90;;;;;;6214189;23;20015;-84
2022/01/24 03:27:59;;;;;;;7.22;5.10;;;3.70;99.90;;;;;;6214093;23;20087;-84
2022/01/24 03:30:25;;;;;;;7.13;4.88;;;3.70;99.90;;;;;;6214175;23;20066;-84
2022/01/24 03:32:51;;;;;;;8.35;5.15;;;3.70;99.90;;;;;;6214139;23;20012;-85
2022/01/24 03:35:17;;;;;;;6.05;4.57;;;3.70;99.90;;;;;;6214067;23;20004;-84
2022/01/24 03:37:43;;;;;;;8.20;5.30;;;3.70;99.90;;;;;;6214147;23;20456;-84
2022/01/24 03:40:10;;;;;;;8.45;5.10;;;3.70;99.90;;;;;;6214051;23;20007;-84
2022/01/24 03:42:36;;;;;;;8.07;5.30;;;3.70;99.90;;;;;;6214120;23;20001;-84
2022/01/24 03:45:03;;;;;;;6.95;5.05;;;3.70;99.90;;;;;;6214028;23;20011;-85
2022/01/24 03:49:58;;;;;;;7.40;5.45;;;3.60;99.90;;;;;;6216123;23;20005;-85
2022/01/24 03:52:23;;;;;;;7.05;5.25;;;3.70;99.90;;;;;;6214079;23;20054;-84
2022/01/24 03:54:50;;;;;;;7.97;5.57;;;3.70;99.90;;;;;;6217433;23;20031;-85
2022/01/24 03:57:19;;;;;;;8.52;5.18;;;3.70;99.90;;;;;;6217588;23;20003;-84
2022/01/24 03:59:46;;;;;;;8.18;5.47;;;3.60;99.90;;;;;;6215998;23;20000;-85
2022/01/24 04:02:13;;;;;;;8.70;5.22;;;3.70;99.90;;;;;;6215926;23;20008;-85
2022/01/24 04:04:38;;;;;;;8.60;5.40;;;3.70;99.90;;;;;;6215902;23;20015;-85
2022/01/24 04:07:04;;;;;;;9.98;5.57;;;3.70;99.90;;;;;;6215781;23;20032;-85
2022/01/24 04:09:30;;;;;;;8.73;5.18;;;3.70;99.90;;;;;;6215886;23;20004;-85
2022/01/24 04:11:58;;;;;;;8.35;5.43;;;3.60;99.90;;;;;;6216554;23;20009;-85
2022/01/24 04:22:09;;;;;;;11.32;5.60;;;3.60;99.90;;;;;;6227784;23;20059;-85
2022/01/24 04:24:36;;;;;;;8.45;5.70;;;3.60;99.90;;;;;;6215630;23;20011;-85
2022/01/24 04:27:02;;;;;;;8.40;5.05;;;3.60;99.90;;;;;;6215651;23;20016;-85
2022/01/24 04:29:28;;;;;;;9.23;6.03;;;3.60;99.90;;;;;;6215592;23;20009;-85
2022/01/24 04:31:54;;;;;;;10.45;5.78;;;3.60;99.90;;;;;;6215659;23;20012;-85
2022/01/24 04:34:19;;;;;;;9.52;5.30;;;3.60;99.90;;;;;;6215555;23;20004;-85
2022/01/24 04:36:45;;;;;;;7.68;5.05;;;3.60;99.90;;;;;;6217474;23;19996;-85
2022/01/24 04:39:11;;;;;;;8.07;5.38;;;3.60;99.90;;;;;;6215541;23;20001;-85
2022/01/24 04:41:40;;;;;;;9.63;6.07;;;3.60;99.90;;;;;;6215506;23;19996;-85
2022/01/24 04:47:15;;;;;;;7.78;5.22;;;3.60;99.90;;;;;;6217426;23;20055;-85
2022/01/24 04:54:54;;;;;;;6.95;5.10;;;3.50;99.90;;;;;;6217066;23;19935;-85
2022/01/24 04:57:22;;;;;;;11.98;5.97;;;3.50;99.90;;;;;;6216749;23;20433;-85
2022/01/24 04:59:51;;;;;;;8.05;5.53;;;3.50;99.90;;;;;;6216891;23;19996;-85
2022/01/24 05:02:19;;;;;;;8.23;5.80;;;3.60;99.90;;;;;;6215377;23;20059;-85
2022/01/24 05:04:46;;;;;;;7.95;5.15;;;3.50;99.90;;;;;;6215148;23;20005;-85
2022/01/24 05:07:12;;;;;;;9.43;6.18;;;3.50;99.90;;;;;;6215298;23;20005;-85
2022/01/24 05:09:56;;;;;;;7.97;5.43;;;3.50;99.90;;;;;;6215321;23;20527;-85
2022/01/24 05:25:56;;;;;;;14.38;5.50;;;3.50;99.90;;;;;;6227617;23;20009;-85
2022/01/24 05:28:22;;;;;;;8.98;6.20;;;3.50;99.90;;;;;;6215819;23;20325;-84
2022/01/24 05:30:48;;;;;;;10.68;6.25;;;3.50;99.90;;;;;;6215101;23;20522;-85
2022/01/24 05:33:14;;;;;;;9.40;6.05;;;3.50;99.90;;;;;;6215076;23;20005;-85
2022/01/24 05:35:40;;;;;;;11.30;6.45;;;3.50;99.90;;;;;;6214982;23;20004;-85
2022/01/24 05:38:06;;;;;;;11.35;6.75;;;3.50;99.90;;;;;;6216558;23;20082;-85
2022/01/24 05:40:32;;;;;;;12.73;6.90;;;3.50;99.90;;;;;;6214994;23;20024;-85
2022/01/24 05:42:58;;;;;;;9.18;6.32;;;3.50;99.90;;;;;;6214999;23;20001;-85
2022/01/24 05:45:24;;;;;;;10.70;6.50;;;3.40;99.90;;;;;;6216499;23;20319;-85
2022/01/24 05:47:50;;;;;;;8.93;6.00;;;3.40;99.90;;;;;;6219911;23;20345;-85
2022/01/24 05:50:16;;;;;;;10.38;6.75;;;3.40;99.90;;;;;;6219944;23;20087;-85
2022/01/24 05:52:42;;;;;;;11.15;6.18;;;3.40;99.90;;;;;;6219972;23;20082;-86
2022/01/24 05:55:08;;;;;;;12.35;6.65;;;3.40;99.90;;;;;;6246694;23;20000;-86
2022/01/24 05:57:34;;;;;;;10.90;6.97;;;3.40;99.90;;;;;;6220153;23;20000;-85
2022/01/24 05:59:59;;;;;;;11.35;6.70;;;3.40;99.90;;;;;;6246572;23;20000;-85
2022/01/24 06:02:26;;;;;;;11.07;6.95;;;3.40;99.90;;;;;;6221168;23;19997;-85
2022/01/24 06:04:52;;;;;;;9.70;6.07;;;3.40;99.90;;;;;;6219775;23;20004;-86
2022/01/24 06:07:18;;;;;;;10.50;7.25;;;3.40;99.90;;;;;;6219676;23;20004;-85
2022/01/24 06:09:43;;;;;;;12.48;6.93;;;3.40;99.90;;;;;;6219704;23;20008;-85
2022/01/24 06:12:10;;;;;;;14.32;7.68;;;3.40;99.90;;;;;;6219645;23;20004;-85
2022/01/24 06:14:36;;;;;;;10.50;6.57;;;3.40;99.90;;;;;;6219583;23;20004;-85
2022/01/24 06:17:02;;;;;;;12.88;6.97;;;3.40;99.90;;;;;;6219350;23;20004;-85
2022/01/24 06:19:28;;;;;;;12.40;7.07;;;3.40;99.90;;;;;;6219653;23;20366;-86
2022/01/24 06:21:54;;;;;;;11.27;7.22;;;3.40;99.90;;;;;;6219655;23;20019;-86
2022/01/24 06:24:20;;;;;;;11.77;7.18;;;3.40;99.90;;;;;;6219604;23;20000;-85
2022/01/24 06:26:46;;;;;;;11.80;7.45;;;3.40;99.90;;;;;;6246763;23;20007;-85
2022/01/24 06:29:12;;;;;;;12.18;8.10;;;3.40;99.90;;;;;;6246749;23;19996;-85
2022/01/24 06:31:38;;;;;;;11.63;7.47;;;3.40;99.90;;;;;;6219562;23;20004;-86
2022/01/24 06:34:05;;;;;;;14.25;7.15;;;3.40;99.90;;;;;;6219452;23;20003;-86
2022/01/24 06:36:31;;;;;;;13.00;7.88;;;3.40;99.90;;;;;;6219438;23;20004;-86
2022/01/24 06:38:56;;;;;;;12.07;7.25;;;3.40;99.90;;;;;;6219598;23;20452;-86
2022/01/24 06:41:28;;;;;;;10.65;7.25;;;3.40;99.90;;;;;;6219508;23;20031;-86
2022/01/24 06:43:54;;;;;;;13.68;8.13;;;3.40;99.90;;;;;;6219495;23;20062;-86
2022/01/24 06:46:19;;;;;;;15.27;8.38;;;3.30;99.90;;;;;;6246303;23;20067;-86
2022/01/24 06:48:45;;;;;;;12.90;7.57;;;3.30;99.90;;;;;;6219305;23;20035;-86
2022/01/24 06:51:11;;;;;;;13.95;8.52;;;3.30;99.90;;;;;;6219485;23;20031;-86
2022/01/24 06:53:37;;;;;;;12.35;8.07;;;3.30;99.90;;;;;;6219452;23;20455;-86
2022/01/24 06:56:05;;;;;;;13.10;7.78;;;3.30;99.90;;;;;;6219304;23;20074;-86
2022/01/24 06:58:31;;;;;;;11.32;7.38;;;3.30;99.90;;;;;;6219745;23;20008;-86
2022/01/24 07:00:57;;;;;;;12.50;8.15;;;3.30;99.90;;;;;;6219426;23;20412;-85
2022/01/24 07:03:22;;;;;;;12.82;8.20;;;3.30;99.90;;;;;;6219398;23;20083;-86
2022/01/24 07:05:48;;;;;;;12.43;7.90;;;3.30;99.90;;;;;;6219302;23;20102;-86
2022/01/24 07:08:14;;;;;;;12.23;7.50;;;3.30;99.90;;;;;;6219348;23;20008;-86
2022/01/24 07:10:40;;;;;;;12.55;8.65;;;3.30;99.90;;;;;;6219339;23;20008;-86
2022/01/24 07:13:05;;;;;;;14.55;8.48;;;3.30;99.90;;;;;;6246117;23;20008;-86
2022/01/24 07:15:33;;;;;;;13.25;8.27;;;3.30;99.90;;;;;;6219152;23;20444;-86
2022/01/24 07:20:27;;;;;;;13.75;8.13;;;3.30;99.90;;;;;;6246610;23;20010;-86
2022/01/24 07:22:53;;;;;;;13.20;8.60;;;3.30;99.90;;;;;;6219261;23;20091;-86
2022/01/24 07:25:21;;;;;;;13.90;8.20;;;3.30;99.90;;;;;;6219267;23;20004;-87
2022/01/24 07:27:47;;;;;;;10.32;7.78;;;3.30;99.90;;;;;;6220308;23;20459;-86
2022/01/24 07:30:13;;;;;;;12.73;8.25;;;3.30;99.90;;;;;;6221301;23;20083;-86
2022/01/24 07:32:39;;;;;;;13.55;8.75;;;3.30;99.90;;;;;;6221532;23;20008;-86
2022/01/24 07:35:05;;;;;;;12.60;7.53;;;3.30;99.90;;;;;;6221765;23;20388;-86
2022/01/24 07:37:30;;;;;;;12.35;8.27;;;3.30;99.90;;;;;;6221623;23;20420;-86
2022/01/24 07:39:56;;;;;;;12.30;8.05;;;3.40;99.90;;;;;;6248423;23;20003;-86
2022/01/24 07:42:50;;;;;;;12.52;7.70;;;3.50;99.90;;;;;;6221136;23;20492;-86
2022/01/24 07:45:14;;;;;;;12.95;8.10;;;3.70;99.90;;;;;;6247646;23;20000;-86
2022/01/24 07:47:40;;;;;;;13.13;7.80;;;4.00;99.90;;;;;;6247780;23;20352;-86
2022/01/24 07:50:06;;;;;;;13.50;8.27;;;4.20;99.90;;;;;;6248012;23;20008;-86
2022/01/24 07:52:32;;;;;;;12.25;7.88;;;4.50;99.90;;;;;;6248244;23;20004;-86
2022/01/24 07:54:57;;;;;;;12.38;8.48;;;4.70;99.90;;;;;;6220768;23;20027;-86
2022/01/24 07:57:23;;;;;;;14.23;8.13;;;5.00;99.90;;;;;;6221058;23;20062;-86
2022/01/24 07:59:49;;;;;;;12.32;8.63;;;5.20;99.90;;;;;;6220973;23;20079;-86
2022/01/24 08:02:15;;;;;;;13.20;8.05;;;5.40;99.90;;;;;;6220895;23;19996;-86
2022/01/24 08:04:40;;;;;;;15.90;7.95;;;5.70;99.90;;;;;;6221209;23;20008;-86
2022/01/24 08:07:06;;;;;;;11.55;7.43;;;6.00;99.90;;;;;;6220810;23;20009;-86
2022/01/24 08:09:32;;;;;;;12.23;8.02;;;6.10;99.90;;;;;;6220979;23;20004;-86
2022/01/24 08:11:57;;;;;;;13.65;8.07;;;6.30;99.90;;;;;;6247716;23;20023;-86
2022/01/24 08:14:23;;;;;;;12.77;7.57;;;6.60;99.90;;;;;;6220712;23;20011;-86
2022/01/24 08:16:49;;;;;;;13.13;7.60;;;6.70;99.90;;;;;;6220759;23;20031;-86
2022/01/24 08:19:15;;;;;;;11.60;8.15;;;7.00;99.90;;;;;;6220758;23;20390;-86
2022/01/24 08:21:40;;;;;;;12.50;7.80;;;7.20;99.90;;;;;;6220687;23;20000;-86
2022/01/24 08:24:07;;;;;;;10.43;6.88;;;7.50;99.90;;;;;;6220708;23;20004;-86
2022/01/24 08:26:33;;;;;;;11.02;7.50;;;7.70;99.90;;;;;;6247613;23;20328;-86
2022/01/24 08:28:59;;;;;;;11.93;7.53;;;8.00;99.90;;;;;;6220690;23;20004;-86
2022/01/24 08:31:24;;;;;;;10.88;7.40;;;8.10;99.90;;;;;;6220785;23;20007;-86
2022/01/24 08:33:50;;;;;;;11.60;7.70;;;7.70;99.90;;;;;;6220764;23;20027;-86
2022/01/24 08:36:16;;;;;;;12.57;7.75;;;7.10;99.90;;;;;;6220522;23;20003;-86
2022/01/24 08:38:46;;;;;;;12.52;8.23;;;6.40;99.90;;;;;;6220167;23;20000;-85
2022/01/24 08:41:19;;;;;;;11.63;7.95;;;5.80;99.90;;;;;;6220580;23;20011;-86
2022/01/24 08:46:14;;;;;;;15.13;8.73;;;5.10;99.90;;;;;;6247523;23;20226;-85
2022/01/24 08:48:40;;;;;;;14.10;8.27;;;4.90;99.90;;;;;;6220240;23;20099;-86
2022/01/24 08:51:06;;;;;;;16.80;9.13;;;4.70;99.90;;;;;;6220544;23;20042;-86
2022/01/24 08:53:34;;;;;;;16.40;9.25;;;4.60;99.90;;;;;;6220559;23;20087;-86
2022/01/24 08:56:02;;;;;;;14.77;8.80;;;4.50;99.90;;;;;;6220407;23;20031;-86
2022/01/24 08:58:28;;;;;;;15.48;9.18;;;4.40;99.90;;;;;;6220386;23;20004;-86
2022/01/24 09:00:54;;;;;;;14.43;9.25;;;4.60;99.90;;;;;;6220554;23;20050;-86
2022/01/24 09:03:20;;;;;;;14.75;9.32;;;5.10;99.90;;;;;;6220368;23;20004;-86
2022/01/24 09:05:48;;;;;;;15.13;9.15;;;6.40;99.90;;;;;;6220291;23;20008;-87
2022/01/24 09:08:14;;;;;;;11.60;7.45;;;7.80;99.90;;;;;;6220335;23;20015;-86
2022/01/24 09:10:40;;;;;;;14.02;9.35;;;9.00;99.90;;;;;;6220334;23;20007;-86
2022/01/24 09:13:07;;;;;;;13.55;8.85;;;9.80;99.90;;;;;;6247213;23;20004;-87
2022/01/24 09:15:33;;;;;;;13.35;8.30;;;10.30;99.90;;;;;;6247427;23;20011;-87
2022/01/24 09:17:59;;;;;;;13.30;8.70;;;10.70;99.90;;;;;;6247068;23;20004;-87
2022/01/24 09:20:25;;;;;;;13.57;8.65;;;10.90;99.90;;;;;;6220346;23;20035;-87
2022/01/24 09:22:51;;;;;;;17.85;9.50;;;10.90;99.90;;;;;;6220142;23;20003;-87
2022/01/24 09:25:19;;;;;;;15.27;9.40;;;10.80;99.90;;;;;;6220136;23;20417;-88
2022/01/24 09:27:46;;;;;;;15.20;9.32;;;10.20;99.90;;;;;;6220137;23;20000;-87
2022/01/24 09:30:15;;;;;;;12.15;8.88;;;9.70;99.90;;;;;;6220146;23;20439;-87
2022/01/24 09:32:41;;;;;;;13.38;9.00;;;9.60;99.90;;;;;;6246947;23;20390;-87
2022/01/24 09:35:09;;;;;;;14.13;8.65;;;10.00;99.90;;;;;;6220007;23;20095;-87
2022/01/24 09:37:35;;;;;;;13.38;8.50;;;10.50;99.90;;;;;;6219990;23;20004;-88
2022/01/24 09:40:02;;;;;;;12.27;8.55;;;10.70;99.90;;;;;;6246931;23;20071;-88
2022/01/24 09:42:28;;;;;;;13.07;8.77;;;11.00;99.90;;;;;;6220079;23;20456;-88
2022/01/24 09:44:55;;;;;;;11.93;8.40;;;11.10;99.90;;;;;;6220159;23;20093;-88
2022/01/24 09:47:20;;;;;;;15.38;8.27;;;11.20;99.90;;;;;;6219771;23;20012;-88
2022/01/24 09:49:47;;;;;;;13.00;9.05;;;11.40;99.90;;;;;;6219998;23;20008;-88
2022/01/24 09:52:14;;;;;;;11.13;8.15;;;11.50;99.90;;;;;;6219862;23;20004;-85
2022/01/24 09:54:39;;;;;;;12.30;8.23;;;11.70;99.90;;;;;;6219804;23;20008;-86
2022/01/24 09:57:05;;;;;;;13.00;8.07;;;11.90;99.90;;;;;;6219737;23;20007;-86
2022/01/24 09:59:32;;;;;;;13.00;7.90;;;11.80;99.90;;;;;;6219757;23;20004;-84
2022/01/24 10:01:58;;;;;;;11.43;7.65;;;11.70;99.90;;;;;;6246690;23;19997;-85
2022/01/24 10:04:25;;;;;;;10.68;7.47;;;11.80;99.90;;;;;;6219835;23;20484;-86
2022/01/24 10:07:11;;;;;;;10.75;7.50;;;11.70;99.90;;;;;;6219634;23;20004;-85
2022/01/24 10:09:41;;;;;;;10.43;7.35;;;11.40;99.90;;;;;;6219737;23;20003;-85
2022/01/24 10:18:04;;;;;;;12.23;7.93;;;10.40;99.90;;;;;;6246545;23;20022;-85
2022/01/24 10:20:33;;;;;;;12.57;7.25;;;9.90;99.90;;;;;;6219614;23;20004;-86
2022/01/24 10:23:16;;;;;;;13.52;7.50;;;9.70;99.90;;;;;;6219549;23;20015;-85
2022/01/24 10:25:59;;;;;;;14.25;7.43;;;9.50;99.90;;;;;;6219585;23;20015;-85
2022/01/24 10:28:30;;;;;;;10.37;7.47;;;9.00;99.90;;;;;;6219531;23;20091;-84
2022/01/24 10:31:09;;;;;;;10.10;7.30;;;8.70;99.90;;;;;;6219488;23;20239;-85
2022/01/24 10:36:41;;;;;;;9.18;6.78;;;8.50;99.90;;;;;;6256544;23;20452;-85
2022/01/24 10:39:29;;;;;;;10.02;7.47;;;8.40;99.90;;;;;;6246734;23;20049;-85
2022/01/24 10:44:59;;;;;;;12.35;7.32;;;7.70;99.90;;;;;;6247027;23;20008;-85
2022/01/24 10:47:30;;;;;;;11.48;7.22;;;7.70;99.90;;;;;;6219035;23;20051;-85
2022/01/24 10:49:57;;;;;;;11.02;6.78;;;7.70;99.90;;;;;;6219310;23;20012;-86
2022/01/24 10:52:26;;;;;;;12.82;7.57;;;7.70;99.90;;;;;;6219338;23;20087;-85
2022/01/24 10:55:10;;;;;;;11.73;6.95;;;7.70;99.90;;;;;;6219193;23;20035;-85
2022/01/24 10:57:36;;;;;;;9.43;7.10;;;7.60;99.90;;;;;;6219287;23;20336;-85
2022/01/24 11:00:10;;;;;;;9.48;6.45;;;7.60;99.90;;;;;;6219256;23;20008;-85
2022/01/24 11:02:41;;;;;;;;;;;7.60;99.90;;;;;;6246424;23;20075;-87
2022/01/24 11:05:16;;;;;;;17.73;9.10;;;7.60;99.90;;;;;;6219520;23;19954;-89
2022/01/24 11:07:50;;;;;;;13.50;8.60;;;7.40;99.90;;;;;;6219277;23;20008;-85
2022/01/24 11:10:16;;;;;;;12.48;8.30;;;7.40;99.90;;;;;;6219140;23;20031;-85
2022/01/24 11:12:42;;;;;;;10.95;7.65;;;7.40;99.90;;;;;;6246014;23;20432;-85
2022/01/24 11:15:10;;;;;;;14.23;7.95;;;7.40;99.90;;;;;;6219028;23;20011;-85
2022/01/24 11:17:36;;;;;;;12.77;8.40;;;7.40;99.90;;;;;;6219514;23;20004;-85
2022/01/24 11:20:03;;;;;;;12.70;7.82;;;7.40;99.90;;;;;;6219119;23;20004;-84
2022/01/24 11:22:30;;;;;;;10.07;7.10;;;7.40;99.90;;;;;;6218979;23;20000;-85
2022/01/24 11:25:03;;;;;;;13.20;7.72;;;7.40;99.90;;;;;;6219021;23;20024;-85
2022/01/24 11:27:30;;;;;;;9.77;7.35;;;7.30;99.90;;;;;;6219110;23;20034;-85
2022/01/24 11:29:59;;;;;;;11.32;7.97;;;7.30;99.90;;;;;;6219007;23;20054;-84
2022/01/24 11:32:40;;;;;;;10.68;7.88;;;7.30;99.90;;;;;;6219132;23;20388;-85
2022/01/24 11:35:07;;;;;;;14.60;7.95;;;7.20;99.90;;;;;;6219031;23;20004;-84
2022/01/24 11:37:45;;;;;;;9.68;7.43;;;7.20;99.90;;;;;;6245884;23;19993;-85
2022/01/24 11:40:17;;;;;;;10.02;7.40;;;7.20;99.90;;;;;;6218779;23;20107;-84
2022/01/24 11:42:47;;;;;;;12.75;6.95;;;7.20;99.90;;;;;;6219099;23;20066;-85
2022/01/24 11:45:18;;;;;;;9.57;6.93;;;7.20;99.90;;;;;;6219446;23;20004;-85
2022/01/24 11:47:47;;;;;;;10.73;6.82;;;7.10;99.90;;;;;;6245770;23;20032;-85
2022/01/24 11:50:31;;;;;;;9.90;6.80;;;7.10;99.90;;;;;;6220485;23;20019;-85
2022/01/24 11:52:58;;;;;;;12.02;6.90;;;7.10;99.90;;;;;;6218987;23;20000;-85
2022/01/24 11:55:34;;;;;;;8.68;6.22;;;7.10;99.90;;;;;;6219564;23;20035;-85
2022/01/24 11:58:07;;;;;;;10.82;6.35;;;7.10;99.90;;;;;;6245892;23;19996;-85
2022/01/24 12:00:44;;;;;;;10.25;6.20;;;7.10;99.90;;;;;;6218918;23;19996;-85
2022/01/24 12:03:23;;;;;;;9.00;6.25;;;7.10;99.90;;;;;;6246479;23;20000;-84
2022/01/24 12:05:53;;;;;;;8.80;5.93;;;7.10;99.90;;;;;;6245741;23;20007;-85
2022/01/24 12:08:42;;;;;;;8.40;6.03;;;7.10;99.90;;;;;;6218915;23;20429;-85
2022/01/24 12:11:27;;;;;;;7.70;5.63;;;7.10;99.90;;;;;;6218973;23;20004;-85
2022/01/24 12:14:01;;;;;;;9.95;5.68;;;7.10;99.90;;;;;;6219246;23;20433;-85
2022/01/24 12:16:35;;;;;;;7.15;5.45;;;7.10;99.90;;;;;;6247957;23;20003;-85
2022/01/24 12:19:02;;;;;;;11.02;5.60;;;7.00;99.90;;;;;;6220612;23;20000;-85
2022/01/24 12:21:29;;;;;;;7.28;5.32;;;7.00;99.90;;;;;;6220704;23;20007;-84
2022/01/24 12:23:59;;;;;;;8.70;5.43;;;7.00;99.90;;;;;;6220601;23;20004;-85
2022/01/24 12:26:27;;;;;;;7.53;5.38;;;7.00;99.90;;;;;;6220710;23;20015;-85
2022/01/24 12:28:58;;;;;;;7.68;5.40;;;7.00;99.90;;;;;;6220699;23;20089;-84
2022/01/24 12:31:38;;;;;;;8.73;5.40;;;7.00;99.90;;;;;;6221681;23;20008;-83
2022/01/24 12:34:08;;;;;;;7.50;4.50;;;7.00;99.90;;;;;;6247548;23;20003;-85
2022/01/24 12:36:37;;;;;;;7.22;5.15;;;7.00;99.90;;;;;;6220483;23;20066;-85
2022/01/24 12:39:15;;;;;;;8.25;5.63;;;6.90;99.90;;;;;;6220527;23;20455;-86
2022/01/24 12:41:47;;;;;;;6.78;4.40;;;6.90;99.90;;;;;;6220437;23;20005;-85
2022/01/24 12:47:04;;;;;;;5.97;4.30;;;6.90;99.90;;;;;;6247471;23;20010;-85
2022/01/24 12:49:31;;;;;;;8.13;4.57;;;6.90;99.90;;;;;;6247312;23;20004;-85
2022/01/24 12:52:02;;;;;;;6.25;4.70;;;6.90;99.90;;;;;;6220398;23;20000;-85
2022/01/24 12:54:30;;;;;;;7.60;4.22;;;6.90;99.90;;;;;;6220139;23;20314;-85
2022/01/24 12:57:05;;;;;;;6.47;4.38;;;6.90;99.90;;;;;;6221594;23;20004;-84
2022/01/24 12:59:32;;;;;;;5.45;4.00;;;6.90;99.90;;;;;;6247479;23;20023;-85
2022/01/24 13:02:01;;;;;;;5.65;4.22;;;6.90;99.90;;;;;;6220297;23;20007;-85
2022/01/24 13:04:38;;;;;;;5.07;4.32;;;6.90;99.90;;;;;;6220127;23;20008;-85
2022/01/24 13:07:05;;;;;;;6.38;4.28;;;6.90;99.90;;;;;;6220198;23;20000;-85
2022/01/24 13:09:34;;;;;;;5.53;4.35;;;6.90;99.90;;;;;;6220160;23;20032;-85
2022/01/24 13:12:04;;;;;;;5.43;3.88;;;6.90;99.90;;;;;;6220111;23;20011;-84
2022/01/24 13:14:46;;;;;;;5.65;4.20;;;6.90;99.90;;;;;;6246936;23;20325;-84
2022/01/24 13:23:06;;;;;;;8.00;4.07;;;6.90;99.90;;;;;;6247306;23;20007;-85
2022/01/24 13:25:36;;;;;;;6.85;3.55;;;6.90;99.90;;;;;;6220599;23;20485;-84
2022/01/24 13:28:12;;;;;;;6.40;4.30;;;7.00;99.90;;;;;;6219973;23;20454;-85
2022/01/24 13:30:43;;;;;;;7.00;4.53;;;7.00;99.90;;;;;;6220065;23;20011;-85
2022/01/24 13:33:12;;;;;;;5.40;3.55;;;7.00;99.90;;;;;;6220007;23;20012;-85
2022/01/24 13:35:49;;;;;;;5.68;4.32;;;7.00;99.90;;;;;;6219942;23;20004;-85
2022/01/24 13:38:27;;;;;;;5.95;4.13;;;7.00;99.90;;;;;;6220095;23;20004;-84
2022/01/24 13:41:05;;;;;;;5.10;4.18;;;7.00;99.90;;;;;;6219903;23;20054;-85
2022/01/24 13:43:37;;;;;;;6.18;4.18;;;7.10;99.90;;;;;;6246800;23;19996;-85
2022/01/24 13:46:17;;;;;;;5.75;3.60;;;7.10;99.90;;;;;;6219957;23;20389;-85
2022/01/24 13:48:43;;;;;;;5.22;3.75;;;7.10;99.90;;;;;;6214696;23;20345;-85
2022/01/24 13:51:09;;;;;;;5.22;3.92;;;7.10;99.90;;;;;;6216396;23;20083;-85
2022/01/24 13:53:38;;;;;;;6.47;4.00;;;7.10;99.90;;;;;;6214775;23;20488;-84
2022/01/24 13:56:28;;;;;;;5.65;3.80;;;7.10;99.90;;;;;;6214658;23;20004;-84
2022/01/24 13:59:18;;;;;;;4.55;3.58;;;7.10;99.90;;;;;;6216391;23;20334;-84
2022/01/24 14:02:02;;;;;;;5.65;3.83;;;7.10;99.90;;;;;;6216383;23;20021;-84
2022/01/24 14:04:28;;;;;;;;;;;7.10;99.90;;;;;;6216833;23;20394;-84
2022/01/24 14:07:02;;;;;;;5.32;3.70;;;7.10;99.90;;;;;;6214641;23;19931;-84
2022/01/24 14:09:49;;;;;;;6.35;4.07;;;7.10;99.90;;;;;;6214710;23;20381;-84
2022/01/24 14:12:18;;;;;;;6.53;3.72;;;7.10;99.90;;;;;;6214722;23;20000;-84
2022/01/24 14:14:58;;;;;;;5.25;3.38;;;7.00;99.90;;;;;;6214599;23;20035;-84
2022/01/24 14:20:11;;;;;;;6.38;3.65;;;7.00;99.90;;;;;;6216565;23;20055;-85
2022/01/24 14:22:42;;;;;;;4.70;3.47;;;6.90;99.90;;;;;;6214592;23;20000;-84
2022/01/24 14:25:14;;;;;;;7.13;4.22;;;6.90;99.90;;;;;;6214619;23;20016;-84
2022/01/24 14:27:52;;;;;;;4.50;3.25;;;6.80;99.90;;;;;;6214575;23;20051;-84
2022/01/24 14:30:22;;;;;;;5.18;3.95;;;6.80;99.90;;;;;;6216104;23;20001;-84
2022/01/24 14:33:12;;;;;;;5.53;3.85;;;6.70;99.90;;;;;;6214602;23;20005;-84
2022/01/24 14:35:56;;;;;;;5.18;4.05;;;6.70;99.90;;;;;;6216020;23;20007;-84
2022/01/24 14:38:36;;;;;;;5.60;3.78;;;6.50;99.90;;;;;;6215799;23;20076;-84
2022/01/24 14:41:29;;;;;;;7.65;4.40;;;6.50;99.90;;;;;;6214501;23;20000;-84
2022/01/24 14:46:40;;;;;;;8.77;4.75;;;6.40;99.90;;;;;;6216385;23;20077;-84
2022/01/24 14:49:24;;;;;;;6.78;4.30;;;6.30;99.90;;;;;;6244381;23;20008;-84
2022/01/24 14:51:59;;;;;;;5.33;4.00;;;6.20;99.90;;;;;;6220184;23;20038;-84
2022/01/24 14:54:30;;;;;;;6.85;4.20;;;6.10;99.90;;;;;;6219251;23;20246;-83
2022/01/24 14:57:00;;;;;;;6.10;3.90;;;6.10;99.90;;;;;;6219453;23;20050;-83
2022/01/24 14:59:26;;;;;;;10.30;4.40;;;6.00;99.90;;;;;;6219341;23;20027;-83
2022/01/24 15:01:53;;;;;;;4.88;4.13;;;6.00;99.90;;;;;;6219383;23;20004;-83
2022/01/24 15:04:20;;;;;;;5.43;3.97;;;5.90;99.90;;;;;;6219269;23;20066;-84
2022/01/24 15:06:46;;;;;;;8.13;4.47;;;5.80;99.90;;;;;;6246050;23;20054;-84
2022/01/24 15:09:31;;;;;;;5.57;4.30;;;5.80;99.90;;;;;;6219642;23;20032;-84
2022/01/24 15:12:01;;;;;;;6.13;4.03;;;5.80;99.90;;;;;;6219183;23;20004;-84
2022/01/24 15:27:38;;;;;;;5.95;3.90;;;5.60;99.90;;;;;;6246537;23;20011;-84
2022/01/24 15:30:06;;;;;;;8.07;4.90;;;5.60;99.90;;;;;;6219199;23;20054;-83